Danciger, Texas
Current Conditions -  °F | °C
As of 5:15 PM on Saturday 25 Oct 2014 (Local Time) from KARM Reporting Station
Clear Clear  
Wind Chill: 83°   Ceiling: Unl
Heat Index: 83°   Visibility: 10mi
Dew Point: 57°   Wind: 6mph
Humidity: 40%   Direction: 110°ESE
Pressure: 30.1"   Gusts: NA
Location:  29.17°N, 95.82°W
Report Text: KARM 252215Z AUTO 11005KT 10SM CLR 29/14 A3010 RMK AO2 T02850137
Loading
Personal Weather Stations






























Interactive Weather Map
Tropical Storm Tracking
New forecast layout! Learn more

10-Day Weather Forecast

Advertisements
Track Severe Weather on mobile